Time;durP1;ratioP1;P1;durP2;ratioP2;P2;SDS_P1;SDS_P2;PMS_P1;PMS_P2;Temp;Humidity;BMP_temperature;BMP_pressure;BME280_temperature;BME280_humidity;BME280_pressure;Samples;Min_cycle;Max_cycle;Signal;HPM_P1;HPM_P2
2021/05/08 00:00:33;;;;;;;1.95;0.90;;;18.60;22.00;;;;;;5062912;28;20040;-60
2021/05/08 00:03:00;;;;;;;0.85;0.70;;;18.60;22.30;;;;;;5049066;28;20567;-58
2021/05/08 00:05:26;;;;;;;1.92;0.63;;;18.60;22.10;;;;;;5047736;28;20415;-59
2021/05/08 00:07:51;;;;;;;3.72;0.75;;;18.50;22.20;;;;;;5054364;28;20039;-57
2021/05/08 00:10:17;;;;;;;3.95;0.57;;;18.50;22.40;;;;;;5058984;28;20495;-58
2021/05/08 00:12:44;;;;;;;1.88;0.40;;;18.50;21.70;;;;;;5056037;28;20055;-58
2021/05/08 00:15:12;;;;;;;2.25;0.50;;;18.60;21.40;;;;;;5031872;28;20048;-58
2021/05/08 00:17:38;;;;;;;3.67;0.82;;;18.60;21.60;;;;;;5045373;28;20048;-57
2021/05/08 00:20:11;;;;;;;1.90;0.70;;;18.50;22.00;;;;;;5036530;28;20517;-57
2021/05/08 00:22:37;;;;;;;1.85;0.50;;;18.50;21.60;;;;;;5057027;28;20060;-58
2021/05/08 00:25:05;;;;;;;2.97;0.60;;;18.50;21.60;;;;;;5050835;28;20098;-56
2021/05/08 00:27:31;;;;;;;1.13;0.60;;;18.50;21.50;;;;;;5047662;28;20036;-58
2021/05/08 00:29:57;;;;;;;1.13;0.47;;;18.50;21.60;;;;;;5054792;28;20402;-59
2021/05/08 00:32:22;;;;;;;1.80;0.50;;;18.50;21.20;;;;;;5041771;28;20086;-59
2021/05/08 00:34:48;;;;;;;2.47;0.50;;;18.50;21.50;;;;;;5049276;28;20041;-59
2021/05/08 00:37:14;;;;;;;1.60;0.43;;;18.50;21.90;;;;;;5050482;28;20598;-58
2021/05/08 00:39:39;;;;;;;1.02;0.50;;;18.40;21.70;;;;;;5055474;28;20029;-58
2021/05/08 00:42:05;;;;;;;1.10;0.50;;;18.40;21.80;;;;;;5058696;28;20039;-58
2021/05/08 00:44:31;;;;;;;1.98;0.75;;;18.40;22.10;;;;;;5046863;28;20069;-57
2021/05/08 00:46:57;;;;;;;2.17;0.73;;;18.40;22.10;;;;;;5023329;28;20134;-58
2021/05/08 00:49:26;;;;;;;0.82;0.63;;;18.30;23.20;;;;;;5048873;28;20033;-58
2021/05/08 00:51:52;;;;;;;2.22;0.90;;;18.40;24.30;;;;;;5066572;28;20121;-59
2021/05/08 00:54:18;;;;;;;7.47;1.10;;;18.30;26.50;;;;;;5049414;28;20504;-59
2021/05/08 00:56:43;;;;;;;1.45;0.80;;;18.30;27.50;;;;;;5058268;28;20032;-59
2021/05/08 00:59:09;;;;;;;2.63;1.20;;;18.30;28.50;;;;;;5049689;28;20041;-58
2021/05/08 01:01:35;;;;;;;1.48;1.10;;;18.30;29.30;;;;;;5062773;28;20072;-58
2021/05/08 01:04:01;;;;;;;1.95;1.40;;;18.30;29.70;;;;;;5054661;28;20391;-58
2021/05/08 01:06:27;;;;;;;1.95;1.05;;;18.10;32.40;;;;;;5071550;28;20040;-59
2021/05/08 01:08:52;;;;;;;1.95;1.05;;;18.10;32.30;;;;;;5067531;28;20164;-58
2021/05/08 01:11:18;;;;;;;2.28;1.33;;;18.10;33.40;;;;;;5051528;28;20040;-59
2021/05/08 01:13:44;;;;;;;1.77;1.50;;;18.10;33.30;;;;;;5059617;28;20029;-59
2021/05/08 01:16:10;;;;;;;3.22;1.00;;;18.10;33.60;;;;;;5049081;28;20032;-58
2021/05/08 01:18:36;;;;;;;1.67;1.20;;;18.10;33.70;;;;;;5039297;28;20033;-58
2021/05/08 01:21:02;;;;;;;1.30;1.15;;;18.10;34.10;;;;;;5046083;28;20033;-59
2021/05/08 01:23:29;;;;;;;1.95;1.33;;;18.00;34.60;;;;;;5054543;28;20029;-58
2021/05/08 01:25:55;;;;;;;1.85;1.30;;;18.00;35.10;;;;;;5053316;28;20402;-58
2021/05/08 01:28:21;;;;;;;1.83;1.23;;;18.00;35.40;;;;;;5050412;28;20037;-57
2021/05/08 01:30:46;;;;;;;3.40;1.58;;;18.00;35.90;;;;;;5063389;28;20116;-58
2021/05/08 01:33:13;;;;;;;2.30;1.42;;;17.90;36.00;;;;;;5065136;28;20443;-57
2021/05/08 01:35:38;;;;;;;1.85;1.38;;;18.00;36.40;;;;;;5047108;28;20086;-57
2021/05/08 01:38:04;;;;;;;2.40;1.40;;;17.90;37.40;;;;;;5048496;28;20040;-59
2021/05/08 01:40:34;;;;;;;2.65;1.85;;;17.80;37.00;;;;;;5065095;28;20044;-59
2021/05/08 01:43:00;;;;;;;3.42;2.05;;;17.70;37.80;;;;;;5054392;28;20045;-59
2021/05/08 01:45:26;;;;;;;1.60;1.50;;;17.80;37.80;;;;;;5049714;28;20045;-59
2021/05/08 01:47:53;;;;;;;2.78;1.50;;;17.80;38.00;;;;;;5055211;28;20036;-58
2021/05/08 01:50:22;;;;;;;3.30;1.42;;;17.70;38.30;;;;;;5050062;28;20406;-56
2021/05/08 01:52:48;;;;;;;3.13;1.58;;;17.60;39.00;;;;;;5068454;28;20055;-55
2021/05/08 01:55:23;;;;;;;3.22;1.60;;;17.60;39.00;;;;;;5062692;28;20566;-59
2021/05/08 01:57:51;;;;;;;2.33;1.83;;;17.70;40.00;;;;;;5071056;28;20032;-58
2021/05/08 02:00:28;;;;;;;2.70;1.95;;;17.50;40.90;;;;;;5067945;28;20032;-58
2021/05/08 02:02:55;;;;;;;3.20;1.83;;;17.50;40.70;;;;;;5046585;28;20045;-59
2021/05/08 02:05:22;;;;;;;3.80;2.10;;;17.50;40.80;;;;;;5055942;28;20064;-59
2021/05/08 02:07:49;;;;;;;3.30;2.00;;;17.50;40.90;;;;;;5062781;28;20040;-58
2021/05/08 02:10:15;;;;;;;2.92;2.00;;;17.50;41.10;;;;;;5060491;28;20052;-58
2021/05/08 02:12:41;;;;;;;2.17;1.65;;;17.50;41.40;;;;;;5053386;28;20056;-59
2021/05/08 02:15:13;;;;;;;2.45;1.88;;;17.40;41.40;;;;;;5054303;28;20041;-59
2021/05/08 02:17:39;;;;;;;3.33;1.83;;;17.40;42.60;;;;;;5037835;28;20045;-58
2021/05/08 02:20:07;;;;;;;3.35;2.28;;;17.40;42.10;;;;;;5049425;28;20045;-57
2021/05/08 02:22:33;;;;;;;3.03;2.22;;;17.30;43.40;;;;;;5031240;28;20170;-59
2021/05/08 02:24:58;;;;;;;2.15;1.90;;;17.30;43.00;;;;;;5054621;28;20049;-58
2021/05/08 02:27:24;;;;;;;5.00;2.10;;;17.30;43.10;;;;;;5041450;28;20048;-59
2021/05/08 02:29:50;;;;;;;3.67;2.00;;;17.30;43.20;;;;;;5057738;28;20460;-59
2021/05/08 02:32:15;;;;;;;2.85;2.35;;;17.30;43.30;;;;;;5044915;28;20129;-59
2021/05/08 02:34:41;;;;;;;4.60;1.90;;;17.30;43.50;;;;;;5060291;28;20502;-58
2021/05/08 02:37:07;;;;;;;2.45;2.20;;;17.20;43.80;;;;;;5047564;28;20049;-59
2021/05/08 02:39:32;;;;;;;2.30;1.92;;;17.20;44.00;;;;;;5052799;28;20049;-58
2021/05/08 02:41:58;;;;;;;2.97;1.85;;;17.10;44.20;;;;;;5064767;28;20120;-59
2021/05/08 02:44:24;;;;;;;4.47;2.25;;;17.10;44.30;;;;;;5068592;28;20040;-58
2021/05/08 02:46:49;;;;;;;3.25;1.80;;;17.10;44.40;;;;;;5067080;28;20047;-59
2021/05/08 02:49:15;;;;;;;3.70;2.08;;;17.10;44.70;;;;;;5045710;28;20078;-59
2021/05/08 02:51:41;;;;;;;3.00;2.17;;;17.10;45.20;;;;;;5067818;28;20433;-58
2021/05/08 02:54:06;;;;;;;2.97;2.40;;;17.10;45.00;;;;;;5045445;28;20068;-60
2021/05/08 02:56:32;;;;;;;3.92;2.10;;;17.10;45.10;;;;;;5064529;28;20059;-59
2021/05/08 02:58:58;;;;;;;4.20;2.03;;;17.10;45.00;;;;;;5032262;28;20033;-56
2021/05/08 03:01:23;;;;;;;3.33;1.85;;;17.10;45.30;;;;;;5059242;28;20090;-59
2021/05/08 03:03:49;;;;;;;2.45;2.00;;;17.10;45.00;;;;;;5053346;28;20063;-57
2021/05/08 03:06:15;;;;;;;3.17;2.15;;;17.10;44.70;;;;;;5044032;28;20051;-58
2021/05/08 03:08:40;;;;;;;5.22;1.80;;;17.10;45.00;;;;;;5041396;28;20053;-59
2021/05/08 03:11:41;;;;;;;2.90;2.00;;;17.00;44.90;;;;;;5045615;28;20032;-59
2021/05/08 03:14:07;;;;;;;2.30;1.95;;;17.20;45.90;;;;;;5032624;28;20498;-58
2021/05/08 03:16:33;;;;;;;1.20;1.10;;;17.10;44.70;;;;;;5050718;28;20037;-59
2021/05/08 03:18:59;;;;;;;2.90;1.65;;;17.10;44.80;;;;;;5050056;28;20059;-58
2021/05/08 03:21:25;;;;;;;2.55;1.30;;;17.00;44.70;;;;;;5067781;28;20120;-57
2021/05/08 03:23:51;;;;;;;1.65;1.25;;;17.00;44.80;;;;;;5054072;28;20542;-58
2021/05/08 03:26:17;;;;;;;1.50;1.20;;;17.00;44.60;;;;;;5050465;28;20057;-58
2021/05/08 03:28:42;;;;;;;1.70;1.15;;;16.90;44.60;;;;;;5032486;28;20556;-59
2021/05/08 03:31:08;;;;;;;1.33;1.23;;;16.90;44.60;;;;;;5045423;28;20124;-58
2021/05/08 03:33:34;;;;;;;1.85;1.20;;;16.90;44.50;;;;;;5052120;28;20380;-59
2021/05/08 03:35:59;;;;;;;1.52;1.10;;;16.90;44.30;;;;;;5052113;28;20079;-59
2021/05/08 03:38:25;;;;;;;1.67;1.30;;;16.90;44.20;;;;;;5054035;28;20128;-59
2021/05/08 03:40:51;;;;;;;1.98;1.10;;;16.90;44.20;;;;;;5047258;28;20037;-59
2021/05/08 03:43:16;;;;;;;1.17;1.00;;;16.90;44.20;;;;;;5053125;28;20052;-59
2021/05/08 03:45:42;;;;;;;2.35;1.10;;;16.90;44.30;;;;;;5042799;28;20052;-58
2021/05/08 03:48:08;;;;;;;1.73;1.08;;;16.90;44.00;;;;;;5063749;28;20033;-59
2021/05/08 03:50:33;;;;;;;2.97;1.30;;;17.00;44.00;;;;;;5059991;28;20391;-59
2021/05/08 03:52:59;;;;;;;3.63;1.40;;;17.00;43.80;;;;;;5065632;28;20075;-59
2021/05/08 03:55:25;;;;;;;2.90;1.20;;;16.80;43.80;;;;;;5048268;28;20041;-59
2021/05/08 03:57:51;;;;;;;1.38;0.88;;;16.80;43.70;;;;;;5063157;28;20111;-59
2021/05/08 04:00:17;;;;;;;2.08;0.93;;;16.70;43.40;;;;;;5047572;28;20037;-59
2021/05/08 04:02:48;;;;;;;1.27;1.00;;;16.80;44.00;;;;;;5044731;28;20044;-59
2021/05/08 04:05:14;;;;;;;1.60;1.00;;;16.80;43.10;;;;;;5063017;28;20048;-59
2021/05/08 04:07:40;;;;;;;2.03;1.00;;;16.90;43.00;;;;;;5033865;28;20446;-59
2021/05/08 04:10:06;;;;;;;0.93;0.93;;;16.90;42.80;;;;;;5048019;28;20081;-59
2021/05/08 04:12:32;;;;;;;0.90;0.80;;;16.90;42.90;;;;;;5058430;28;20065;-59
2021/05/08 04:14:57;;;;;;;1.63;1.05;;;16.90;42.40;;;;;;5060723;28;20064;-60
2021/05/08 04:17:23;;;;;;;2.65;1.05;;;17.00;42.30;;;;;;5047973;28;20037;-59
2021/05/08 04:19:48;;;;;;;3.20;1.25;;;16.90;42.10;;;;;;5046964;28;20506;-59
2021/05/08 04:22:14;;;;;;;2.15;0.73;;;16.90;41.90;;;;;;5062864;28;20124;-57
2021/05/08 04:24:40;;;;;;;1.90;1.00;;;16.80;42.00;;;;;;5069037;28;20055;-59
2021/05/08 04:27:05;;;;;;;1.30;0.60;;;16.90;41.70;;;;;;5057215;28;20119;-60
2021/05/08 04:29:31;;;;;;;1.45;0.63;;;16.80;41.60;;;;;;5064950;28;20043;-59
2021/05/08 04:31:57;;;;;;;1.55;0.50;;;16.90;41.50;;;;;;5056285;28;20113;-59
2021/05/08 04:34:22;;;;;;;1.58;0.60;;;16.80;41.30;;;;;;5054977;28;20054;-59
2021/05/08 04:36:48;;;;;;;0.77;0.73;;;16.90;41.00;;;;;;5048527;28;20037;-59
2021/05/08 04:39:14;;;;;;;1.52;0.45;;;16.80;40.90;;;;;;5054462;28;20055;-59
2021/05/08 04:41:40;;;;;;;0.85;0.60;;;16.90;40.80;;;;;;5038031;28;20049;-57
2021/05/08 04:44:07;;;;;;;1.70;0.50;;;16.90;40.80;;;;;;5056341;28;20041;-60
2021/05/08 04:46:32;;;;;;;0.95;0.50;;;16.90;40.80;;;;;;5050694;28;20121;-59
2021/05/08 04:48:58;;;;;;;3.03;0.38;;;16.80;40.40;;;;;;5043044;28;20220;-59
2021/05/08 04:51:24;;;;;;;1.63;0.38;;;16.80;40.70;;;;;;5048474;28;20044;-59
2021/05/08 04:53:49;;;;;;;2.08;0.50;;;16.90;40.60;;;;;;5057318;28;20115;-59
2021/05/08 04:56:16;;;;;;;1.25;0.68;;;16.90;40.30;;;;;;5054151;28;20040;-59
2021/05/08 04:58:43;;;;;;;1.75;0.43;;;16.90;40.20;;;;;;5045792;28;20029;-59
2021/05/08 05:01:09;;;;;;;1.13;0.43;;;17.00;40.20;;;;;;5060911;28;20172;-58
2021/05/08 05:03:35;;;;;;;1.27;0.40;;;16.90;40.10;;;;;;5049592;28;20037;-59
2021/05/08 05:06:01;;;;;;;1.25;0.30;;;16.80;40.30;;;;;;5053535;28;20071;-59
2021/05/08 05:08:27;;;;;;;0.32;0.32;;;16.80;40.10;;;;;;5049538;28;20506;-59
2021/05/08 05:10:55;;;;;;;1.60;0.40;;;16.90;39.70;;;;;;5038379;28;20139;-58
2021/05/08 05:13:21;;;;;;;0.35;0.20;;;16.80;39.60;;;;;;5050316;28;20487;-59
2021/05/08 05:15:46;;;;;;;1.58;0.40;;;16.80;39.40;;;;;;5056744;28;20051;-59
2021/05/08 05:18:12;;;;;;;0.70;0.22;;;16.80;39.60;;;;;;5048713;28;20044;-60
2021/05/08 05:20:39;;;;;;;1.38;0.40;;;16.70;39.60;;;;;;5060433;28;20044;-60
2021/05/08 05:23:04;;;;;;;0.98;0.45;;;16.90;39.40;;;;;;5055515;28;20033;-59
2021/05/08 05:25:30;;;;;;;6.30;0.68;;;16.80;39.40;;;;;;5035585;28;20037;-59
2021/05/08 05:27:55;;;;;;;5.75;0.70;;;16.90;39.30;;;;;;5048938;28;20063;-59
2021/05/08 05:30:22;;;;;;;2.85;0.40;;;16.90;39.30;;;;;;5049077;28;20163;-59
2021/05/08 05:32:48;;;;;;;2.38;0.45;;;16.90;39.00;;;;;;5056317;28;20044;-60
2021/05/08 05:35:13;;;;;;;1.90;0.70;;;16.80;38.90;;;;;;5065176;28;20041;-58
2021/05/08 05:37:39;;;;;;;3.53;0.52;;;16.80;38.90;;;;;;5067366;28;20127;-59
2021/05/08 05:40:05;;;;;;;2.25;0.57;;;16.90;39.00;;;;;;5062765;28;20517;-60
2021/05/08 05:42:31;;;;;;;0.40;0.35;;;17.00;39.60;;;;;;5046750;28;20029;-58
2021/05/08 05:44:57;;;;;;;1.67;0.40;;;17.00;38.80;;;;;;5053798;28;20043;-60
2021/05/08 05:47:23;;;;;;;0.85;0.40;;;16.90;38.80;;;;;;5056936;28;20041;-58
2021/05/08 05:49:53;;;;;;;1.30;0.22;;;17.10;38.70;;;;;;5054380;28;20454;-58
2021/05/08 05:52:22;;;;;;;4.18;0.60;;;17.10;38.70;;;;;;5068037;28;20056;-59
2021/05/08 05:54:50;;;;;;;1.30;0.40;;;17.10;38.70;;;;;;5048389;28;20102;-59
2021/05/08 05:57:16;;;;;;;0.73;0.30;;;17.30;38.60;;;;;;5056708;28;20067;-58
2021/05/08 05:59:41;;;;;;;1.50;0.30;;;17.30;38.50;;;;;;5052294;28;20037;-59
2021/05/08 06:02:09;;;;;;;1.25;0.50;;;17.20;38.20;;;;;;5060676;28;20055;-60
2021/05/08 06:04:34;;;;;;;0.88;0.30;;;17.20;38.30;;;;;;5065278;28;20045;-59
2021/05/08 06:07:00;;;;;;;1.08;0.40;;;17.20;38.00;;;;;;5062683;28;20391;-59
2021/05/08 06:09:27;;;;;;;2.40;0.30;;;17.30;38.10;;;;;;5068164;28;20051;-59
2021/05/08 06:11:57;;;;;;;2.85;0.80;;;17.20;38.10;;;;;;5064297;28;20048;-59
2021/05/08 06:14:26;;;;;;;0.68;0.60;;;17.20;38.00;;;;;;5049629;28;20036;-59
2021/05/08 06:16:55;;;;;;;0.70;0.50;;;17.10;37.90;;;;;;5050281;28;20043;-59
2021/05/08 06:19:22;;;;;;;1.52;0.30;;;17.10;37.90;;;;;;5066764;28;20033;-59
2021/05/08 06:21:47;;;;;;;1.48;0.43;;;17.10;38.00;;;;;;5053657;28;20501;-60
2021/05/08 06:24:13;;;;;;;0.95;0.30;;;17.30;37.90;;;;;;5048096;28;20132;-58
2021/05/08 06:26:39;;;;;;;1.10;0.40;;;17.20;37.80;;;;;;5047773;28;20502;-58
2021/05/08 06:29:05;;;;;;;1.30;0.32;;;17.30;37.90;;;;;;5044409;28;20045;-58
2021/05/08 06:31:31;;;;;;;2.70;0.30;;;17.40;37.60;;;;;;5046093;28;20028;-60
2021/05/08 06:33:57;;;;;;;1.30;0.40;;;17.40;37.40;;;;;;5057962;28;20033;-58
2021/05/08 06:36:23;;;;;;;1.27;0.43;;;17.50;37.30;;;;;;5044437;28;20394;-58
2021/05/08 06:38:48;;;;;;;1.75;0.40;;;17.50;37.50;;;;;;5052987;28;20491;-60
2021/05/08 06:41:15;;;;;;;2.00;0.32;;;17.60;37.40;;;;;;5049131;28;20048;-58
2021/05/08 06:43:41;;;;;;;3.13;0.50;;;17.50;37.20;;;;;;5057114;28;20484;-59
2021/05/08 06:46:08;;;;;;;1.20;0.65;;;17.50;37.80;;;;;;5052702;28;20041;-63
2021/05/08 06:48:35;;;;;;;1.83;0.60;;;17.50;37.60;;;;;;5047668;28;20033;-58
2021/05/08 06:51:01;;;;;;;1.85;0.30;;;17.60;37.40;;;;;;5052396;28;20464;-58
2021/05/08 06:53:26;;;;;;;2.60;0.43;;;17.60;37.10;;;;;;5062480;28;20210;-58
2021/05/08 06:55:52;;;;;;;2.53;0.32;;;17.50;37.10;;;;;;5066833;28;20111;-58
2021/05/08 06:58:17;;;;;;;1.73;0.73;;;17.40;37.10;;;;;;5052795;28;20403;-59
2021/05/08 07:00:43;;;;;;;1.65;0.43;;;17.40;37.10;;;;;;5050622;28;20040;-59
2021/05/08 07:03:09;;;;;;;4.07;1.08;;;17.50;36.90;;;;;;5039094;28;20048;-59
2021/05/08 07:05:34;;;;;;;1.58;0.30;;;17.60;36.80;;;;;;5057165;28;20139;-58
2021/05/08 07:08:08;;;;;;;2.55;0.40;;;17.60;36.50;;;;;;5045016;28;20076;-58
2021/05/08 07:10:45;;;;;;;3.10;0.68;;;17.70;36.30;;;;;;5066519;28;20613;-56
2021/05/08 07:13:11;;;;;;;1.73;0.45;;;17.70;36.40;;;;;;5052016;28;20041;-58
2021/05/08 07:15:37;;;;;;;0.47;0.47;;;17.80;36.40;;;;;;5045595;28;20044;-59
2021/05/08 07:18:05;;;;;;;2.70;0.47;;;17.80;36.30;;;;;;5044804;28;20085;-59
2021/05/08 07:20:32;;;;;;;1.65;0.55;;;17.90;36.10;;;;;;5056692;28;20052;-58
2021/05/08 07:22:57;;;;;;;2.85;0.45;;;17.80;35.80;;;;;;5055909;28;20119;-60
2021/05/08 07:25:23;;;;;;;0.63;0.45;;;17.90;35.80;;;;;;5042941;28;20504;-60
2021/05/08 07:27:49;;;;;;;2.78;0.85;;;18.00;35.90;;;;;;5042549;28;20045;-58
2021/05/08 07:30:16;;;;;;;1.13;0.63;;;18.10;35.80;;;;;;5057100;28;20166;-60
2021/05/08 07:32:42;;;;;;;1.38;0.52;;;17.90;35.80;;;;;;5064238;28;20040;-59
2021/05/08 07:35:08;;;;;;;1.30;0.50;;;17.90;35.80;;;;;;5053770;28;20042;-60
2021/05/08 07:37:34;;;;;;;1.27;0.60;;;17.80;35.50;;;;;;5054669;28;20040;-57
2021/05/08 07:40:00;;;;;;;1.90;0.40;;;17.90;35.60;;;;;;5041641;28;20341;-59
2021/05/08 07:42:26;;;;;;;1.73;0.93;;;17.90;35.40;;;;;;5046557;28;20033;-60
2021/05/08 07:44:51;;;;;;;1.85;0.60;;;18.10;35.20;;;;;;5041243;28;20122;-58
2021/05/08 07:47:17;;;;;;;4.70;0.57;;;18.20;34.90;;;;;;5046789;28;20037;-59
2021/05/08 07:49:43;;;;;;;0.35;0.30;;;18.40;34.90;;;;;;5044313;28;20063;-59
2021/05/08 07:52:09;;;;;;;1.38;0.60;;;18.20;34.60;;;;;;5049567;28;20528;-60
2021/05/08 07:54:34;;;;;;;0.85;0.73;;;18.30;34.90;;;;;;5044859;28;20175;-59
2021/05/08 07:57:00;;;;;;;1.77;0.50;;;18.40;34.50;;;;;;5053830;28;20049;-58
2021/05/08 07:59:26;;;;;;;1.30;0.50;;;18.40;34.40;;;;;;5064356;28;20047;-59
2021/05/08 08:01:51;;;;;;;3.33;0.90;;;18.30;33.80;;;;;;5071808;28;20055;-58
2021/05/08 08:04:17;;;;;;;1.98;0.60;;;18.30;33.90;;;;;;5068513;28;20031;-57
2021/05/08 08:06:43;;;;;;;1.73;0.52;;;18.30;34.30;;;;;;5066499;28;20121;-59
2021/05/08 08:09:09;;;;;;;3.03;0.73;;;18.40;34.30;;;;;;5054061;28;20052;-59
2021/05/08 08:11:36;;;;;;;2.67;0.50;;;18.40;33.80;;;;;;5051554;28;20033;-59
2021/05/08 08:14:02;;;;;;;2.15;0.55;;;18.40;34.00;;;;;;5062719;28;20044;-59
2021/05/08 08:16:29;;;;;;;4.22;1.20;;;18.60;34.30;;;;;;5029601;28;20041;-59
2021/05/08 08:18:55;;;;;;;3.67;1.48;;;18.80;34.30;;;;;;5053939;28;20048;-59
2021/05/08 08:21:20;;;;;;;2.17;0.82;;;18.80;34.20;;;;;;5065273;28;20040;-59
2021/05/08 08:23:46;;;;;;;2.05;0.90;;;18.80;34.30;;;;;;5069730;28;20041;-59
2021/05/08 08:26:12;;;;;;;3.90;0.90;;;18.90;34.50;;;;;;5063636;28;20476;-59
2021/05/08 08:28:37;;;;;;;1.70;0.88;;;18.90;34.40;;;;;;5047739;28;20048;-59
2021/05/08 08:31:03;;;;;;;1.38;0.80;;;18.90;34.40;;;;;;5063689;28;20052;-60
2021/05/08 08:33:29;;;;;;;3.67;0.70;;;19.10;34.50;;;;;;5071816;28;20124;-60
2021/05/08 08:35:54;;;;;;;0.90;0.80;;;19.20;34.60;;;;;;5025664;28;20564;-59
2021/05/08 08:38:20;;;;;;;3.70;1.13;;;19.20;34.50;;;;;;5032421;28;20063;-60
2021/05/08 08:40:47;;;;;;;3.28;1.10;;;19.20;34.50;;;;;;5059383;28;20045;-59
2021/05/08 08:43:13;;;;;;;3.25;1.48;;;19.20;34.80;;;;;;5044394;28;20049;-59
2021/05/08 08:45:40;;;;;;;3.50;1.48;;;19.30;34.60;;;;;;5053339;28;20131;-59
2021/05/08 08:48:06;;;;;;;1.75;0.90;;;19.40;34.70;;;;;;5050514;28;20080;-59
2021/05/08 08:50:36;;;;;;;1.48;1.10;;;19.50;34.50;;;;;;5056626;28;20044;-60
2021/05/08 08:53:06;;;;;;;6.60;1.58;;;19.10;34.50;;;;;;5056737;28;20048;-59
2021/05/08 08:55:34;;;;;;;5.80;1.50;;;19.00;35.10;;;;;;5059694;28;20095;-60
2021/05/08 08:58:03;;;;;;;3.47;1.05;;;19.10;35.00;;;;;;5050329;28;20074;-60
2021/05/08 09:00:29;;;;;;;0.63;0.60;;;19.10;34.80;;;;;;5047170;28;20045;-60
2021/05/08 09:02:55;;;;;;;4.68;1.85;;;19.20;34.80;;;;;;5066268;28;20127;-60
2021/05/08 09:05:23;;;;;;;3.45;1.10;;;19.30;34.60;;;;;;5052476;28;20535;-60
2021/05/08 09:07:51;;;;;;;3.05;1.20;;;19.30;34.30;;;;;;5046297;28;20098;-52
2021/05/08 09:10:29;;;;;;;10.98;1.90;;;19.40;34.60;;;;;;5066521;28;20040;-59
2021/05/08 09:12:57;;;;;;;4.38;1.10;;;19.50;35.10;;;;;;5046862;28;20043;-58
2021/05/08 09:15:30;;;;;;;3.88;1.10;;;19.50;34.30;;;;;;5041536;28;20127;-59
2021/05/08 09:17:56;;;;;;;5.03;1.45;;;19.60;34.40;;;;;;5053032;28;20483;-59
2021/05/08 09:20:22;;;;;;;3.38;2.10;;;19.70;34.60;;;;;;5051040;28;20041;-59
2021/05/08 09:22:50;;;;;;;4.80;1.40;;;19.60;34.30;;;;;;5022476;28;20802;-59
2021/05/08 09:25:19;;;;;;;5.50;4.10;;;19.90;34.20;;;;;;5060352;28;20045;-59
2021/05/08 09:27:52;;;;;;;2.70;1.00;;;20.00;34.30;;;;;;5045013;28;20041;-59
2021/05/08 09:30:29;;;;;;;1.85;0.88;;;19.90;34.40;;;;;;5063738;28;20054;-59
2021/05/08 09:32:55;;;;;;;3.95;2.20;;;19.70;34.40;;;;;;5065234;28;20507;-58
2021/05/08 09:35:21;;;;;;;2.42;0.63;;;19.80;34.50;;;;;;5057689;28;20044;-57
2021/05/08 09:37:49;;;;;;;2.63;0.88;;;19.70;34.50;;;;;;5068064;28;20039;-57
2021/05/08 09:40:58;;;;;;;4.53;1.40;;;19.80;34.20;;;;;;5063346;28;20432;-58
2021/05/08 09:43:24;;;;;;;1.27;1.00;;;19.70;34.40;;;;;;5029338;28;20119;-59
2021/05/08 09:45:52;;;;;;;3.85;1.10;;;19.80;34.50;;;;;;5055495;28;20139;-59
2021/05/08 09:48:30;;;;;;;3.13;0.82;;;19.90;34.60;;;;;;5039537;28;20052;-60
2021/05/08 09:51:14;;;;;;;2.88;1.10;;;19.90;34.30;;;;;;5051265;28;20086;-59
2021/05/08 09:53:40;;;;;;;3.53;0.70;;;19.90;34.70;;;;;;4994833;28;20041;-60
2021/05/08 09:56:06;;;;;;;2.85;1.00;;;19.90;34.40;;;;;;5056873;28;20049;-60
2021/05/08 09:58:32;;;;;;;1.77;0.98;;;19.70;34.40;;;;;;5052998;28;20036;-59
2021/05/08 10:00:58;;;;;;;2.85;1.00;;;19.80;34.30;;;;;;5044663;28;20032;-60
2021/05/08 10:03:24;;;;;;;5.75;1.25;;;19.90;34.20;;;;;;5044521;28;20063;-58
2021/05/08 10:06:02;;;;;;;4.88;1.10;;;19.90;34.00;;;;;;5050147;28;20057;-60
2021/05/08 10:08:27;;;;;;;1.80;1.00;;;19.80;33.80;;;;;;5054699;28;20037;-59
2021/05/08 10:10:54;;;;;;;13.65;1.27;;;19.80;33.50;;;;;;5051448;28;20041;-59
2021/05/08 10:13:20;;;;;;;2.08;1.00;;;19.80;33.90;;;;;;5047638;28;20060;-59
2021/05/08 10:15:47;;;;;;;2.30;1.17;;;20.00;33.80;;;;;;5053972;28;20037;-59
2021/05/08 10:18:14;;;;;;;2.40;0.82;;;20.00;33.80;;;;;;5048753;28;20048;-60
2021/05/08 10:20:41;;;;;;;4.43;1.02;;;20.10;34.20;;;;;;5025559;28;20140;-59
2021/05/08 10:23:12;;;;;;;2.47;1.02;;;20.20;33.90;;;;;;5045304;28;20045;-60
2021/05/08 10:25:39;;;;;;;2.35;1.50;;;20.30;34.00;;;;;;5043014;28;20526;-59
2021/05/08 10:28:06;;;;;;;1.55;0.90;;;20.40;34.00;;;;;;5056307;28;20111;-59
2021/05/08 10:30:35;;;;;;;4.20;1.20;;;20.40;33.80;;;;;;5061892;28;20126;-61
2021/05/08 10:33:10;;;;;;;2.78;1.10;;;20.50;33.90;;;;;;5061874;28;20040;-59
2021/05/08 10:35:47;;;;;;;1.83;1.15;;;20.50;33.90;;;;;;5046413;28;20040;-58
2021/05/08 10:38:24;;;;;;;2.90;1.13;;;20.60;34.30;;;;;;5049746;28;20033;-59
2021/05/08 10:41:04;;;;;;;6.05;0.98;;;20.70;33.70;;;;;;4986338;28;20851;-58
2021/05/08 10:43:37;;;;;;;3.63;1.20;;;20.90;33.30;;;;;;4996542;28;20046;-58
2021/05/08 10:46:03;;;;;;;4.50;1.27;;;20.90;33.00;;;;;;4971476;28;20085;-59
2021/05/08 10:48:29;;;;;;;5.15;0.95;;;20.80;32.80;;;;;;4972573;28;20539;-59
2021/05/08 10:50:58;;;;;;;2.10;1.08;;;20.90;32.90;;;;;;4974944;28;20062;-59
2021/05/08 10:53:44;;;;;;;4.22;1.08;;;20.90;32.80;;;;;;4952442;28;20443;-59
2021/05/08 10:56:29;;;;;;;3.78;1.33;;;21.00;33.00;;;;;;4953549;28;20085;-59
2021/05/08 10:59:09;;;;;;;4.03;1.08;;;21.10;32.60;;;;;;5009808;28;20484;-59
2021/05/08 11:01:44;;;;;;;4.45;1.13;;;21.30;32.30;;;;;;4985113;28;20125;-59
2021/05/08 11:04:11;;;;;;;3.53;1.02;;;21.50;32.20;;;;;;5027717;28;20094;-59
2021/05/08 11:06:37;;;;;;;1.10;1.00;;;21.60;32.10;;;;;;5036323;28;20123;-58
2021/05/08 11:09:04;;;;;;;1.92;1.08;;;21.70;31.90;;;;;;5005583;28;20060;-60
2021/05/08 11:11:49;;;;;;;2.72;1.10;;;21.90;31.40;;;;;;4978058;28;20036;-61
2021/05/08 11:14:36;;;;;;;1.55;1.08;;;23.40;29.60;;;;;;4963822;28;21409;-59
2021/05/08 11:17:02;;;;;;;2.10;1.27;;;26.00;36.40;;;;;;4956321;28;20043;-58
2021/05/08 11:19:28;;;;;;;4.90;1.40;;;;;;;;;;4954913;28;20054;-60
2021/05/08 11:22:05;;;;;;;1.95;1.17;;;27.80;23.80;;;;;;4967384;28;20039;-60
2021/05/08 11:24:34;;;;;;;1.30;1.20;;;28.90;23.20;;;;;;4964160;28;20108;-58
2021/05/08 11:26:59;;;;;;;2.35;1.35;;;29.90;22.10;;;;;;5008773;28;20031;-60
2021/05/08 11:29:28;;;;;;;3.33;1.40;;;29.90;21.90;;;;;;4949094;28;20392;-59
2021/05/08 11:31:56;;;;;;;6.13;2.08;;;29.20;21.80;;;;;;4989197;28;20092;-60
2021/05/08 11:34:29;;;;;;;2.40;1.58;;;28.90;22.60;;;;;;4965035;28;20503;-60
2021/05/08 11:37:00;;;;;;;1.63;1.45;;;28.20;23.30;;;;;;4966570;28;20384;-60
2021/05/08 11:39:43;;;;;;;4.72;1.80;;;27.80;31.00;;;;;;4959880;28;20494;-60
2021/05/08 11:42:13;;;;;;;2.88;1.90;;;27.80;24.90;;;;;;4937840;28;20485;-60
2021/05/08 11:44:47;;;;;;;3.22;1.67;;;26.90;25.20;;;;;;4961284;28;20035;-60
2021/05/08 11:47:35;;;;;;;11.00;5.88;;;26.70;25.60;;;;;;4968515;28;20038;-60
2021/05/08 11:50:05;;;;;;;5.47;2.05;;;26.30;25.40;;;;;;4962217;28;20059;-59
2021/05/08 11:52:39;;;;;;;6.90;3.80;;;26.20;25.70;;;;;;4952256;28;20043;-58
2021/05/08 11:55:26;;;;;;;7.80;3.67;;;25.90;26.10;;;;;;4963577;28;20130;-59
2021/05/08 11:58:00;;;;;;;4.15;2.70;;;25.70;26.60;;;;;;4949150;28;20138;-60
2021/05/08 12:00:32;;;;;;;6.43;2.08;;;25.90;26.90;;;;;;4959769;28;20054;-59
2021/05/08 12:03:12;;;;;;;2.78;1.65;;;26.00;26.40;;;;;;4977869;28;20130;-59
2021/05/08 12:05:40;;;;;;;2.83;1.58;;;26.90;25.40;;;;;;4953419;28;20215;-59
2021/05/08 12:08:06;;;;;;;3.05;1.80;;;27.80;24.80;;;;;;4969769;28;20461;-60
2021/05/08 12:10:37;;;;;;;3.50;1.63;;;28.90;24.20;;;;;;4970089;28;20044;-60
2021/05/08 12:13:02;;;;;;;8.80;3.60;;;28.50;24.20;;;;;;4952257;28;20116;-60
2021/05/08 12:15:37;;;;;;;5.13;2.05;;;27.50;24.70;;;;;;4949684;28;20485;-60
2021/05/08 12:18:04;;;;;;;7.45;2.95;;;27.30;25.00;;;;;;4965954;28;20047;-59
2021/05/08 12:20:32;;;;;;;9.05;3.80;;;27.30;25.00;;;;;;4952710;28;20061;-60
2021/05/08 12:23:01;;;;;;;6.05;3.08;;;27.40;24.90;;;;;;4951519;28;20089;-60
2021/05/08 12:25:28;;;;;;;8.05;2.42;;;27.20;25.00;;;;;;4944177;28;20067;-60
2021/05/08 12:28:19;;;;;;;2.10;1.70;;;27.10;25.10;;;;;;4951007;28;20040;-60
2021/05/08 12:30:51;;;;;;;2.38;1.60;;;27.60;24.50;;;;;;4919545;28;20035;-60
2021/05/08 12:33:24;;;;;;;4.80;1.98;;;27.80;25.00;;;;;;4945397;28;20031;-60
2021/05/08 12:35:51;;;;;;;10.52;1.80;;;28.20;24.70;;;;;;4961701;28;20390;-59
2021/05/08 12:38:17;;;;;;;4.97;1.80;;;28.90;24.40;;;;;;4962216;28;20039;-60
2021/05/08 12:40:46;;;;;;;3.45;1.70;;;29.00;24.70;;;;;;4963793;28;20047;-59
2021/05/08 12:43:26;;;;;;;3.03;1.67;;;28.40;24.60;;;;;;4951129;28;20047;-59
2021/05/08 12:46:07;;;;;;;5.32;1.70;;;27.90;25.00;;;;;;4943765;28;20043;-60
2021/05/08 12:48:38;;;;;;;3.75;1.60;;;27.00;25.10;;;;;;4957524;28;20033;-58
2021/05/08 12:51:27;;;;;;;5.30;2.00;;;26.50;26.20;;;;;;4943202;28;20051;-59